CW7218 Berga ES current weather conditions

sailwx.info

Air temperature 21.1° C
Dewpoint 11.2° C

Last reported at 2019-Sep-16 21:00 UTC.
Time now 2019-Sep-16 22:15 UTC

Location: N 42°06' E 001°51'.
View on Google Maps.

See reports from other nearby stations

  
Tides and Currents Weather Stations Pressure Air Temp Water Temp Dewpoint Dewpoint Depression Visibility Wind Speed Wind Dir Waves Ship Positions
date/time (UTC)wind fromknots sea level pressurealtimeterstation pressurevisibilityair tempwater tempwave heightnotes
2019-Sep-16 21:00 21.1
2019-Sep-16 20:50 337 1 gusting 6 21.1
2019-Sep-16 20:40 337 0 gusting 6 21.7
2019-Sep-16 20:30 21.7
2019-Sep-16 20:20 21.7
2019-Sep-16 20:10 21.7
2019-Sep-16 20:00 337 0 gusting 6 22.2
2019-Sep-16 19:50 337 1 gusting 6 22.2
2019-Sep-16 19:40 22.2
2019-Sep-16 19:30 22.2
2019-Sep-16 19:20 337 0 gusting 6 22.2
2019-Sep-16 19:10 22.8
2019-Sep-16 19:00 22.8
2019-Sep-16 18:50 337 0 gusting 5 22.8
2019-Sep-16 18:40 337 0 gusting 5 23.3
2019-Sep-16 18:30 23.9
2019-Sep-16 18:20 24.4
2019-Sep-16 18:10 202 0 gusting 5 24.4
2019-Sep-16 18:00 202 1 gusting 6 24.4
2019-Sep-16 17:50 202 1 gusting 6 24.4
2019-Sep-16 17:40 202 0 gusting 4 25.0
2019-Sep-16 17:30 202 1 gusting 6 25.0
2019-Sep-16 17:20 180 1 gusting 6 25.6
2019-Sep-16 17:10 180 3 gusting 6 25.6
2019-Sep-16 17:00 180 3 gusting 7 26.1
2019-Sep-16 16:50 202 6 gusting 10 26.1
2019-Sep-16 16:40 202 5 gusting 10 26.7
2019-Sep-16 16:30 180 2 gusting 7 27.2
2019-Sep-16 16:20 180 1 gusting 5 27.2
2019-Sep-16 16:10 202 3 gusting 6 27.2
2019-Sep-16 16:00 202 2 gusting 6 27.2
2019-Sep-16 15:50 202 1 gusting 5 27.8
2019-Sep-16 15:40 27.8
2019-Sep-16 15:30 27.8
2019-Sep-16 15:20 27.8
2019-Sep-16 15:10 27.8
2019-Sep-16 15:00 180 1 gusting 5 27.8
2019-Sep-16 14:50 157 0 gusting 4 27.2
2019-Sep-16 14:40 180 2 gusting 6 27.2
2019-Sep-16 14:30 180 0 gusting 4 27.8
2019-Sep-16 14:20 27.2
2019-Sep-16 14:10 090 0 gusting 4 26.1
2019-Sep-16 14:00 090 3 gusting 6 25.0
2019-Sep-16 13:50 090 6 gusting 9 25.0
2019-Sep-16 13:40 090 1 gusting 7 26.1
2019-Sep-16 13:30 135 3 gusting 8 26.1
2019-Sep-16 13:20 135 4 gusting 8 25.6
2019-Sep-16 13:10 180 4 gusting 7 26.1
2019-Sep-16 13:00 180 4 gusting 10 26.1
2019-Sep-16 12:50 202 3 gusting 6 26.1
2019-Sep-16 12:40 225 5 gusting 9 26.1
2019-Sep-16 12:30 202 6 gusting 11 26.1
2019-Sep-16 12:20 202 6 gusting 12 26.1
2019-Sep-16 12:10 225 2 gusting 6 26.1
2019-Sep-16 12:00 180 3 gusting 8 26.1
2019-Sep-16 11:50 180 3 gusting 8 26.1
2019-Sep-16 11:40 202 4 gusting 10 26.1
2019-Sep-16 11:30 225 2 gusting 7 25.6
2019-Sep-16 11:20 180 1 gusting 6 25.6
2019-Sep-16 11:10 202 0 gusting 5 25.6
2019-Sep-16 11:00 135 2 gusting 6 25.6
2019-Sep-16 10:50 180 4 gusting 8 25.0
2019-Sep-16 10:40 225 4 gusting 6 25.0
2019-Sep-16 10:30 202 4 gusting 6 25.0
2019-Sep-16 10:20 157 3 gusting 6 25.0
2019-Sep-16 10:10 180 3 gusting 7 25.0
2019-Sep-16 10:00 202 4 gusting 6 24.4
2019-Sep-16 09:50 157 2 gusting 5 25.0
2019-Sep-16 09:40 157 0 gusting 4 24.4
2019-Sep-16 09:30 157 0 gusting 3 24.4
2019-Sep-16 09:20 23.9
2019-Sep-16 09:10 180 0 gusting 2 23.3
2019-Sep-16 09:00 315 1 gusting 5 23.3
2019-Sep-16 08:50 23.3
2019-Sep-16 08:40 23.3
2019-Sep-16 08:30 22.2
2019-Sep-16 08:20 090 0 gusting 4 21.7
2019-Sep-16 08:10 21.7
2019-Sep-16 08:00 21.1
2019-Sep-16 07:50 21.1
2019-Sep-16 07:40 20.6
2019-Sep-16 07:30 20.0
2019-Sep-16 07:20 19.4
2019-Sep-16 07:10 18.3
2019-Sep-16 07:00 045 2 gusting 6 17.8
2019-Sep-16 06:50 022 5 gusting 8 17.2
2019-Sep-16 06:40 045 6 gusting 9 17.2
2019-Sep-16 06:30 045 6 gusting 8 17.2
2019-Sep-16 06:20 045 6 gusting 8 16.7
2019-Sep-16 06:10 045 7 gusting 11 16.7
2019-Sep-16 06:00 045 6 gusting 8 16.7
2019-Sep-16 05:50 045 6 gusting 9 16.7
2019-Sep-16 05:40 045 5 gusting 6 16.7
2019-Sep-16 05:30 045 5 gusting 7 16.7
2019-Sep-16 05:20 045 7 gusting 10 16.7
2019-Sep-16 05:10 045 6 gusting 10 16.7
2019-Sep-16 05:00 045 7 gusting 11 16.7
2019-Sep-16 04:50 045 7 gusting 12 17.2
2019-Sep-16 04:40 045 7 gusting 11 17.2
2019-Sep-16 04:30 045 9 gusting 14 17.2
2019-Sep-16 04:20 067 8 gusting 12 16.7
2019-Sep-16 04:10 090 6 gusting 11 16.7
2019-Sep-16 04:00 045 6 gusting 9 16.7
2019-Sep-16 03:50 045 6 gusting 9 16.7
2019-Sep-16 03:40 045 6 gusting 10 16.7
2019-Sep-16 03:30 045 5 gusting 7 17.2
2019-Sep-16 03:20 045 5 gusting 8 17.2
2019-Sep-16 03:10 045 5 gusting 7 17.2
2019-Sep-16 03:00 045 4 gusting 6 17.2
2019-Sep-16 02:50 045 4 gusting 6 17.8
2019-Sep-16 02:40 022 4 gusting 6 17.2
2019-Sep-16 02:30 045 3 gusting 7 17.2
2019-Sep-16 02:20 067 4 gusting 6 17.2
2019-Sep-16 02:10 067 5 gusting 6 17.2
2019-Sep-16 02:00 067 5 gusting 7 17.2
2019-Sep-16 01:50 090 1 gusting 6 17.8
2019-Sep-16 01:40 045 2 gusting 6 17.8
2019-Sep-16 01:30 045 0 gusting 6 17.8
2019-Sep-16 01:20 17.8
2019-Sep-16 01:10 17.8
2019-Sep-16 01:00 022 0 gusting 3 18.3
2019-Sep-16 00:50 18.3
2019-Sep-16 00:40 022 0 gusting 4 17.8
2019-Sep-16 00:30 045 2 gusting 6 17.8
2019-Sep-16 00:20 045 2 gusting 5 17.8
2019-Sep-16 00:10 067 2 gusting 6 17.8
2019-Sep-16 00:00 045 3 gusting 7 18.3
2019-Sep-15 23:50 045 4 gusting 7 17.8
2019-Sep-15 23:40 067 2 gusting 7 17.8
2019-Sep-15 23:30 045 3 gusting 6 17.8
2019-Sep-15 23:20 045 4 gusting 8 17.8
2019-Sep-15 23:10 067 4 gusting 7 18.3
2019-Sep-15 23:00 045 5 gusting 8 18.3
2019-Sep-15 22:50 045 1 gusting 6 18.3
2019-Sep-15 22:40 090 1 gusting 6 18.3
2019-Sep-15 22:30 045 1 gusting 6 18.9
2019-Sep-15 22:20 045 2 gusting 6 18.9
2019-Sep-15 22:10 045 2 gusting 7 19.4
2019-Sep-15 22:00 045 0 gusting 6 19.4
2019-Sep-15 21:50 20.0
2019-Sep-15 21:40 20.0
2019-Sep-15 21:30 022 0 gusting 5 20.0
2019-Sep-15 21:20 20.0
2019-Sep-15 21:10 022 0 gusting 4 20.0
2019-Sep-15 21:00 20.0
2019-Sep-15 20:50 20.6
2019-Sep-15 20:40 21.1
2019-Sep-15 20:30 21.1
2019-Sep-15 20:20 21.7
2019-Sep-15 20:10 21.7
2019-Sep-15 20:00 21.7
2019-Sep-15 19:50 270 0 gusting 4 21.7
2019-Sep-15 19:40 22.2
2019-Sep-15 19:30 22.2
2019-Sep-15 19:20 22.8
2019-Sep-15 19:10 22.8
2019-Sep-15 19:00 23.3
2019-Sep-15 18:50 23.3
2019-Sep-15 18:40 022 0 gusting 4 23.3
2019-Sep-15 18:30 337 0 gusting 5 22.8
2019-Sep-15 18:20 23.3
2019-Sep-15 18:10 24.4
2019-Sep-15 18:00 090 2 gusting 8 24.4
2019-Sep-15 17:50 25.0
2019-Sep-15 17:40 25.0
2019-Sep-15 17:30 25.0
2019-Sep-15 17:20 135 1 gusting 6 25.0
2019-Sep-15 17:10 135 2 gusting 8 25.6
2019-Sep-15 17:00 135 3 gusting 7 25.6
2019-Sep-15 16:50 135 4 gusting 9 26.1
2019-Sep-15 16:40 135 1 gusting 6 26.7
2019-Sep-15 16:30 157 2 gusting 6 26.7
2019-Sep-15 16:20 135 1 gusting 6 27.2
2019-Sep-15 16:10 135 3 gusting 8 26.7
2019-Sep-15 16:00 180 3 gusting 6 27.2
2019-Sep-15 15:50 135 3 gusting 9 26.7
2019-Sep-15 15:40 180 5 gusting 10 27.2
2019-Sep-15 15:30 180 2 gusting 6 27.8
2019-Sep-15 15:20 157 2 gusting 7 27.2
2019-Sep-15 15:10 180 3 gusting 8 27.2
2019-Sep-15 15:00 180 3 gusting 6 27.2
2019-Sep-15 14:50 202 3 gusting 7 27.2
2019-Sep-15 14:40 202 3 gusting 7 27.2
2019-Sep-15 14:30 112 2 gusting 7 27.2
2019-Sep-15 14:20 090 1 gusting 6 27.2
2019-Sep-15 14:10 090 3 gusting 8 27.2
2019-Sep-15 14:00 180 3 gusting 6 27.2
2019-Sep-15 13:50 157 2 gusting 6 27.2
2019-Sep-15 13:40 180 3 gusting 7 26.7
2019-Sep-15 13:30 180 2 gusting 6 26.7
2019-Sep-15 13:20 135 1 gusting 7 26.7
2019-Sep-15 13:10 135 2 gusting 7 26.1
2019-Sep-15 13:00 135 2 gusting 6 26.1
2019-Sep-15 12:50 157 4 gusting 8 25.6
2019-Sep-15 12:40 135 5 gusting 9 25.6
2019-Sep-15 12:30 157 4 gusting 9 25.6
2019-Sep-15 12:20 180 3 gusting 8 25.0
2019-Sep-15 12:10 157 2 gusting 6 25.0
2019-Sep-15 12:00 180 4 gusting 9 24.4
2019-Sep-15 11:50 157 5 gusting 8 24.4
2019-Sep-15 11:40 157 6 gusting 14 25.0
2019-Sep-15 11:30 202 4 gusting 11 25.0
2019-Sep-15 11:20 180 5 gusting 8 25.0
2019-Sep-15 11:10 180 3 gusting 6 25.0
2019-Sep-15 11:00 180 3 gusting 6 23.9
2019-Sep-15 10:50 090 1 gusting 6 23.9
2019-Sep-15 10:40 157 3 gusting 6 24.4
2019-Sep-15 10:30 135 1 gusting 6 25.0
2019-Sep-15 10:20 112 3 gusting 8 25.0
2019-Sep-15 10:10 112 3 gusting 9 25.0
2019-Sep-15 10:00 112 1 gusting 6 25.0
2019-Sep-15 09:50 24.4
2019-Sep-15 09:40 23.3
2019-Sep-15 09:30 23.9
2019-Sep-15 09:20 180 1 gusting 2 23.3
2019-Sep-15 09:10 180 2 gusting 4 23.3
2019-Sep-15 09:00 180 0 gusting 4 23.3
2019-Sep-15 08:50 22.8
2019-Sep-15 08:40 067 2 gusting 6 21.7
2019-Sep-15 08:30 045 6 gusting 11 20.6
2019-Sep-15 08:20 090 1 gusting 6 20.6
2019-Sep-15 08:10 067 3 gusting 6 20.0
2019-Sep-15 08:00 045 4 gusting 6 19.4
2019-Sep-15 07:50 090 3 gusting 5 19.4
2019-Sep-15 07:40 045 1 gusting 4 18.9
2019-Sep-15 07:30 045 4 gusting 10 18.9
2019-Sep-15 07:20 045 8 gusting 12 18.3
2019-Sep-15 07:10 045 9 gusting 13 17.8
2019-Sep-15 07:00 045 5 gusting 10 17.2
2019-Sep-15 06:50 022 6 gusting 9 17.2
2019-Sep-15 06:40 045 6 gusting 12 16.7
2019-Sep-15 06:30 045 6 gusting 11 16.7
2019-Sep-15 06:20 045 10 gusting 15 16.7
2019-Sep-15 06:10 045 9 gusting 15 16.1
2019-Sep-15 06:00 045 7 gusting 13 16.1
2019-Sep-15 05:50 045 6 gusting 10 16.1
2019-Sep-15 05:40 045 8 gusting 13 16.1
2019-Sep-15 05:30 067 7 gusting 12 16.1
2019-Sep-15 05:20 067 6 gusting 8 16.7
2019-Sep-15 05:10 045 5 gusting 8 16.7
2019-Sep-15 05:00 045 2 gusting 5 17.2
2019-Sep-15 04:50 045 3 gusting 6 17.2
2019-Sep-15 04:40 270 0 gusting 3 17.2
2019-Sep-15 04:30 270 3 gusting 6 17.2
2019-Sep-15 04:20 270 3 gusting 6 17.2
2019-Sep-15 04:10 247 1 gusting 6 17.8
2019-Sep-15 04:00 270 3 gusting 6 18.3
2019-Sep-15 03:50 270 2 gusting 4 18.9
2019-Sep-15 03:40 022 3 gusting 11 19.4
2019-Sep-15 03:30 067 9 gusting 13 19.4
2019-Sep-15 03:20 067 10 gusting 15 18.9
2019-Sep-15 03:10 067 9 gusting 15 18.3
2019-Sep-15 03:00 067 10 gusting 16 18.3
2019-Sep-15 02:50 067 9 gusting 13 17.8
2019-Sep-15 02:40 067 6 gusting 11 17.2
2019-Sep-15 02:30 067 4 gusting 10 17.8
2019-Sep-15 02:20 045 5 gusting 11 17.8
2019-Sep-15 02:10 090 5 gusting 7 17.8
2019-Sep-15 02:00 112 5 gusting 9 17.8
2019-Sep-15 01:50 067 6 gusting 11 18.3
2019-Sep-15 01:40 022 2 gusting 7 18.9
2019-Sep-15 01:30 022 0 gusting 5 18.3
2019-Sep-15 01:20 022 3 gusting 6 18.3
2019-Sep-15 01:10 090 5 gusting 8 18.9
2019-Sep-15 01:00 090 2 gusting 6 18.9
2019-Sep-15 00:50 270 6 gusting 10 19.4
2019-Sep-15 00:40 247 4 gusting 6 18.9
2019-Sep-15 00:30 112 1 gusting 7 18.9
2019-Sep-15 00:20 067 3 gusting 8 19.4
2019-Sep-15 00:10 045 9 gusting 17 20.0
2019-Sep-15 00:00 045 6 gusting 15 21.1
2019-Sep-14 23:50 045 6 gusting 13 21.1
2019-Sep-14 23:40 067 8 gusting 14 21.1
2019-Sep-14 23:30 067 10 gusting 15 21.1
2019-Sep-14 23:20 067 11 gusting 16 20.6
2019-Sep-14 23:10 067 11 gusting 14 20.6
2019-Sep-14 23:00 067 11 gusting 15 20.6
2019-Sep-14 22:50 067 7 gusting 11 21.1
2019-Sep-14 22:40 067 6 gusting 13 21.1
2019-Sep-14 22:30 067 6 gusting 11 20.6
2019-Sep-14 22:20 090 7 gusting 12 21.1
2019-Sep-14 22:10 090 5 gusting 8 21.1
2019-Sep-14 22:00 315 3 gusting 7 21.7